Time;durP1;ratioP1;P1;durP2;ratioP2;P2;SDS_P1;SDS_P2;PMS_P1;PMS_P2;Temp;Humidity;BMP_temperature;BMP_pressure;BME280_temperature;BME280_humidity;BME280_pressure;Samples;Min_cycle;Max_cycle;Signal;HPM_P1;HPM_P2
2021/12/12 00:02:20;;;;;;;109.82;101.65;;;;;;;11.55;100.00;99981.16;5050567;28;20049;-78
2021/12/12 00:04:48;;;;;;;96.95;89.32;;;;;;;11.90;100.00;99967.91;5056231;28;20409;-79
2021/12/12 00:07:21;;;;;;;91.20;84.82;;;;;;;12.12;100.00;99968.09;5056756;28;20547;-78
2021/12/12 00:09:51;;;;;;;81.15;75.28;;;;;;;11.69;100.00;99963.13;5055076;28;20366;-79
2021/12/12 00:12:22;;;;;;;90.88;83.68;;;;;;;12.09;100.00;99960.56;5057462;28;20052;-78
2021/12/12 00:14:51;;;;;;;84.25;77.93;;;;;;;12.18;100.00;99937.06;5056449;28;20132;-79
2021/12/12 00:17:19;;;;;;;86.47;80.30;;;;;;;12.11;100.00;99945.19;5055536;28;20145;-79
2021/12/12 00:19:46;;;;;;;82.68;76.75;;;;;;;12.37;100.00;99935.88;5055522;28;20049;-79
2021/12/12 00:22:16;;;;;;;75.53;69.93;;;;;;;12.29;100.00;99930.09;5055523;28;20114;-78
2021/12/12 00:24:43;;;;;;;79.60;73.28;;;;;;;11.83;100.00;99924.63;5056763;28;20048;-79
2021/12/12 00:27:10;;;;;;;82.07;75.63;;;;;;;12.24;100.00;99932.66;5056347;28;20475;-80
2021/12/12 00:29:37;;;;;;;85.32;78.05;;;;;;;12.12;100.00;99936.16;5056626;28;20056;-78
2021/12/12 00:32:16;;;;;;;90.20;83.22;;;;;;;12.23;100.00;99939.84;5055113;28;20044;-78
2021/12/12 00:34:45;;;;;;;84.47;78.80;;;;;;;12.12;100.00;99938.00;5054577;28;20048;-80
2021/12/12 00:37:12;;;;;;;79.15;72.70;;;;;;;12.08;100.00;99950.19;5056359;28;20546;-80
2021/12/12 00:39:44;;;;;;;77.65;72.13;;;;;;;12.24;100.00;99940.66;5056628;28;20477;-79
2021/12/12 00:42:15;;;;;;;75.05;69.28;;;;;;;12.33;100.00;99942.69;5056547;28;20052;-77
2021/12/12 00:44:46;;;;;;;80.18;74.15;;;;;;;12.60;100.00;99934.97;5055655;28;20119;-78
2021/12/12 00:47:16;;;;;;;76.57;70.15;;;;;;;12.68;100.00;99939.13;5054849;28;20053;-78
2021/12/12 00:49:43;;;;;;;77.15;71.30;;;;;;;12.78;100.00;99930.50;5054197;28;20489;-80
2021/12/12 00:52:14;;;;;;;67.25;62.30;;;;;;;12.87;100.00;99929.06;5056037;28;20118;-79
2021/12/12 00:54:41;;;;;;;75.07;68.82;;;;;;;12.34;100.00;99920.38;5055808;28;20053;-80
2021/12/12 00:57:12;;;;;;;65.75;60.85;;;;;;;12.93;100.00;99919.28;5054786;28;20118;-78
2021/12/12 00:59:41;;;;;;;81.95;75.03;;;;;;;12.60;100.00;99920.84;5055294;28;20056;-78
2021/12/12 01:02:11;;;;;;;74.60;68.28;;;;;;;12.69;100.00;99923.94;5055934;28;20130;-78
2021/12/12 01:04:42;;;;;;;67.20;61.60;;;;;;;12.83;100.00;99918.06;5048763;28;20114;-78
2021/12/12 01:07:17;;;;;;;69.88;64.35;;;;;;;13.10;100.00;99917.47;5054421;28;20049;-78
2021/12/12 01:09:50;;;;;;;67.38;62.22;;;;;;;13.16;100.00;99910.31;5052975;28;20041;-79
2021/12/12 01:12:20;;;;;;;74.72;68.53;;;;;;;13.33;100.00;99916.50;5055119;28;20044;-77
2021/12/12 01:14:52;;;;;;;70.00;64.18;;;;;;;13.05;100.00;99902.19;5055447;28;20484;-78
2021/12/12 01:17:22;;;;;;;78.63;71.53;;;;;;;13.23;100.00;99890.47;5055060;28;20052;-78
2021/12/12 01:19:53;;;;;;;59.28;54.67;;;;;;;13.16;100.00;99903.16;5054654;28;20048;-80
2021/12/12 01:22:25;;;;;;;68.88;62.45;;;;;;;13.22;100.00;99896.03;5037657;28;20049;-79
2021/12/12 01:24:54;;;;;;;61.90;56.72;;;;;;;13.33;100.00;99897.03;5055156;28;20462;-80
2021/12/12 01:27:21;;;;;;;66.13;60.60;;;;;;;13.35;100.00;99910.94;5056308;28;20122;-79
2021/12/12 01:29:52;;;;;;;70.35;64.20;;;;;;;13.51;100.00;99912.78;5054622;28;20473;-78
2021/12/12 01:32:28;;;;;;;68.43;63.22;;;;;;;13.34;100.00;99927.97;5053842;28;20060;-80
2021/12/12 01:34:58;;;;;;;56.83;52.83;;;;;;;13.32;100.00;99930.09;5051388;28;20127;-78
2021/12/12 01:37:38;;;;;;;57.97;53.60;;;;;;;13.04;100.00;99908.56;5054524;28;20424;-78
2021/12/12 01:40:13;;;;;;;57.88;53.72;;;;;;;13.21;100.00;99911.22;5050736;28;20440;-77
2021/12/12 01:42:44;;;;;;;64.60;59.08;;;;;;;13.04;100.00;99908.56;5053595;28;20056;-79
2021/12/12 01:45:16;;;;;;;59.40;54.85;;;;;;;13.05;100.00;99912.84;5054486;28;20106;-78
2021/12/12 01:47:47;;;;;;;64.53;59.53;;;;;;;12.99;100.00;99899.69;5055533;28;20045;-79
2021/12/12 01:50:19;;;;;;;58.80;54.13;;;;;;;13.15;100.00;99895.38;5053547;28;20051;-78
2021/12/12 01:52:47;;;;;;;58.72;54.45;;;;;;;13.15;100.00;99888.19;5054313;28;20546;-78
2021/12/12 01:55:23;;;;;;;64.13;59.00;;;;;;;12.93;100.00;99888.13;5054365;28;20111;-79
2021/12/12 01:57:52;;;;;;;67.00;62.30;;;;;;;12.93;100.00;99885.44;5050457;28;20048;-77
2021/12/12 02:00:23;;;;;;;72.75;67.32;;;;;;;12.90;100.00;99877.13;5054336;28;20057;-77
2021/12/12 02:02:50;;;;;;;66.78;61.83;;;;;;;12.93;100.00;99884.66;5051177;28;20056;-78
2021/12/12 02:05:20;;;;;;;60.38;55.63;;;;;;;13.26;100.00;99882.00;5053643;28;20473;-79
2021/12/12 02:07:53;;;;;;;63.38;58.58;;;;;;;13.18;100.00;99877.03;5054162;28;20468;-77
2021/12/12 02:10:25;;;;;;;61.50;57.25;;;;;;;13.18;100.00;99877.03;5053897;28;20057;-78
2021/12/12 02:12:53;;;;;;;68.75;64.18;;;;;;;13.11;100.00;99870.28;5053518;28;20041;-79
2021/12/12 02:15:21;;;;;;;66.35;61.80;;;;;;;13.12;100.00;99880.69;5053549;28;20106;-79
2021/12/12 02:17:49;;;;;;;61.65;57.35;;;;;;;13.08;100.00;99876.91;5053593;28;20045;-78
2021/12/12 02:20:28;;;;;;;58.40;53.90;;;;;;;13.32;100.00;99868.75;5054593;28;20048;-79
2021/12/12 02:23:05;;;;;;;61.92;57.33;;;;;;;13.05;100.00;99875.50;5054179;28;20045;-77
2021/12/12 02:36:37;;;;;;;72.82;67.25;;;;;;;12.36;100.00;99888.97;5054533;28;20452;-81
2021/12/12 02:39:15;;;;;;;76.63;71.32;;;;;;;12.50;100.00;99902.81;5053719;28;20118;-79
2021/12/12 02:41:44;;;;;;;79.50;73.85;;;;;;;12.56;100.00;99899.19;5049507;28;20045;-80
2021/12/12 02:44:11;;;;;;;79.78;74.00;;;;;;;12.55;100.00;99894.91;5053484;28;20114;-79
2021/12/12 02:46:40;;;;;;;77.40;71.80;;;;;;;12.33;100.00;99901.94;5056577;28;20156;-79
2021/12/12 02:49:23;;;;;;;87.85;80.38;;;;;;;12.68;100.00;99907.16;5057102;28;20060;-77
2021/12/12 02:51:49;;;;;;;105.22;94.05;;;;;;;12.65;100.00;99888.13;5058835;28;20044;-78
2021/12/12 02:54:18;;;;;;;79.18;72.38;;;;;;;12.65;100.00;99886.31;5052607;28;20492;-79
2021/12/12 02:56:48;;;;;;;98.78;89.30;;;;;;;12.92;100.00;99869.69;5057739;28;20041;-78
2021/12/12 02:59:17;;;;;;;96.78;87.85;;;;;;;12.71;100.00;99865.88;5057530;28;20049;-80
2021/12/12 03:01:48;;;;;;;93.30;84.70;;;;;;;12.82;100.00;99867.66;5124801;22;20055;-80
2021/12/12 03:04:15;;;;;;;94.68;85.90;;;;;;;12.67;100.00;99862.06;4988776;28;20409;-78
2021/12/12 03:06:43;;;;;;;95.63;86.95;;;;;;;12.59;100.00;99864.09;4989669;28;20141;-78
2021/12/12 03:09:13;;;;;;;129.55;116.70;;;;;;;12.44;100.00;99877.13;4986165;28;20055;-78
2021/12/12 03:11:43;;;;;;;109.80;101.57;;;;;;;12.49;100.00;99879.06;4983098;28;20055;-78
2021/12/12 03:14:10;;;;;;;109.93;102.13;;;;;;;12.35;100.00;99881.22;4986877;28;20542;-78
2021/12/12 03:16:37;;;;;;;114.97;106.68;;;;;;;12.31;100.00;99896.03;4987228;28;20054;-79
2021/12/12 03:19:07;;;;;;;121.85;112.13;;;;;;;12.20;100.00;99900.38;4987313;28;20104;-78
2021/12/12 03:21:42;;;;;;;112.50;104.07;;;;;;;12.23;100.00;99897.25;4991731;28;20058;-78
2021/12/12 03:24:14;;;;;;;114.97;106.65;;;;;;;12.28;100.00;99899.97;4986878;28;20073;-78
2021/12/12 03:26:44;;;;;;;109.30;101.40;;;;;;;12.31;100.00;99894.19;4982678;28;20050;-79
2021/12/12 03:29:12;;;;;;;124.10;115.40;;;;;;;12.13;100.00;99889.03;4993213;28;20046;-77
2021/12/12 03:31:41;;;;;;;127.35;118.88;;;;;;;12.05;100.00;99889.44;4987672;28;20051;-78
2021/12/12 03:34:10;;;;;;;118.43;109.78;;;;;;;12.13;100.00;99878.38;4986583;28;20058;-79
2021/12/12 03:36:38;;;;;;;130.88;121.47;;;;;;;12.04;100.00;99867.34;4982312;28;20086;-78
2021/12/12 03:39:10;;;;;;;155.50;144.23;;;;;;;11.94;100.00;99867.13;4982837;28;20059;-79
2021/12/12 03:41:40;;;;;;;175.63;160.65;;;;;;;11.67;100.00;99867.59;4993401;28;20120;-78
2021/12/12 03:44:12;;;;;;;156.77;145.98;;;;;;;11.92;100.00;99861.22;4986602;28;20096;-79
2021/12/12 03:46:40;;;;;;;171.98;158.18;;;;;;;11.74;100.00;99870.16;4985371;28;20058;-78
2021/12/12 03:49:08;;;;;;;211.57;193.02;;;;;;;11.44;100.00;99871.09;4986878;28;20058;-80
2021/12/12 03:51:36;;;;;;;179.20;164.77;;;;;;;11.65;100.00;99885.66;4991759;28;20054;-79
2021/12/12 03:54:04;;;;;;;183.55;169.25;;;;;;;11.75;100.00;99919.63;4986292;28;20138;-80
2021/12/12 03:56:31;;;;;;;197.32;182.27;;;;;;;11.63;100.00;99943.59;4986867;28;20042;-78
2021/12/12 03:58:58;;;;;;;190.57;177.18;;;;;;;11.64;100.00;99947.03;4986225;28;20450;-78
2021/12/12 04:01:31;;;;;;;175.07;162.82;;;;;;;11.75;100.00;99943.59;4986570;28;20112;-79
2021/12/12 04:04:08;;;;;;;166.57;154.27;;;;;;;11.72;100.00;99924.63;4987166;28;20084;-79
2021/12/12 04:06:35;;;;;;;166.00;154.23;;;;;;;11.68;100.00;99932.25;4990366;28;20054;-79
2021/12/12 04:09:04;;;;;;;165.38;153.43;;;;;;;11.73;100.00;99929.69;4991722;28;20470;-78
2021/12/12 04:11:34;;;;;;;176.60;162.80;;;;;;;11.74;100.00;99938.47;4986317;28;20117;-78
2021/12/12 04:14:03;;;;;;;196.50;181.77;;;;;;;11.70;100.00;99957.56;4989462;28;20055;-80
2021/12/12 04:16:34;;;;;;;190.60;177.38;;;;;;;11.75;100.00;99970.19;4988825;28;20134;-79
2021/12/12 04:19:02;;;;;;;182.85;169.38;;;;;;;11.63;100.00;99962.19;4986993;28;20050;-78
2021/12/12 04:21:30;;;;;;;159.73;148.20;;;;;;;11.55;100.00;99975.84;4990028;28;20058;-78
2021/12/12 04:23:58;;;;;;;159.85;148.50;;;;;;;11.73;100.00;99963.47;4987014;28;20054;-78
2021/12/12 04:26:27;;;;;;;149.85;139.40;;;;;;;11.85;100.00;99972.28;4986667;28;20392;-79
2021/12/12 04:28:59;;;;;;;150.93;141.02;;;;;;;11.83;100.00;99987.63;4991665;28;20054;-78
2021/12/12 04:31:26;;;;;;;137.25;127.95;;;;;;;11.83;100.00;99990.28;4988795;28;20046;-80
2021/12/12 04:33:54;;;;;;;146.15;136.13;;;;;;;11.81;100.00;99965.78;4984611;28;20058;-78
2021/12/12 04:36:26;;;;;;;137.32;127.63;;;;;;;11.81;100.00;99971.91;4984503;28;20479;-79
2021/12/12 04:38:58;;;;;;;145.13;135.43;;;;;;;11.74;100.00;99955.28;4986551;28;20089;-80
2021/12/12 04:41:25;;;;;;;145.10;135.02;;;;;;;11.73;100.00;99939.53;4987271;28;20058;-78
2021/12/12 04:43:52;;;;;;;151.68;141.38;;;;;;;11.52;100.00;99955.00;4981847;28;20113;-78
2021/12/12 04:46:25;;;;;;;153.07;142.40;;;;;;;11.49;100.00;99999.88;4987740;28;20124;-78
2021/12/12 04:51:45;;;;;;;167.77;156.13;;;;;;;11.10;100.00;100015.38;4991208;28;20193;-78
2021/12/12 04:54:21;;;;;;;174.85;162.80;;;;;;;11.26;100.00;100037.88;4984340;28;20055;-79
2021/12/12 04:56:54;;;;;;;192.45;180.30;;;;;;;11.00;100.00;100037.19;4979248;28;20050;-79
2021/12/12 04:59:26;;;;;;;180.10;168.95;;;;;;;11.50;100.00;100049.34;4983261;28;20125;-77
2021/12/12 05:02:03;;;;;;;168.43;157.63;;;;;;;11.48;100.00;100046.13;4986573;28;20051;-78
2021/12/12 05:04:41;;;;;;;153.48;142.90;;;;;;;11.47;100.00;100045.34;4981289;28;20051;-78
2021/12/12 05:07:12;;;;;;;145.10;134.45;;;;;;;11.40;100.00;100042.75;4993461;28;20120;-79
2021/12/12 05:09:46;;;;;;;158.90;148.15;;;;;;;11.35;100.00;100065.75;4985830;28;20125;-79
2021/12/12 05:12:19;;;;;;;153.27;142.88;;;;;;;11.25;100.00;100074.25;4985085;28;20074;-79
2021/12/12 05:14:54;;;;;;;166.15;154.85;;;;;;;11.21;100.00;100065.13;4989656;28;20403;-80
2021/12/12 05:17:24;;;;;;;158.93;148.13;;;;;;;11.17;100.00;100064.75;4991018;28;20046;-78
2021/12/12 05:19:57;;;;;;;145.50;135.40;;;;;;;10.98;100.00;100069.31;4980945;28;20054;-79
2021/12/12 05:22:31;;;;;;;148.50;138.48;;;;;;;10.91;100.00;100067.75;4976851;28;20054;-78
2021/12/12 05:25:00;;;;;;;164.32;152.98;;;;;;;11.03;100.00;100081.09;4985202;28;20058;-80
2021/12/12 05:27:30;;;;;;;163.60;152.35;;;;;;;10.88;100.00;100084.16;4984157;28;20054;-79
2021/12/12 05:30:00;;;;;;;169.05;157.68;;;;;;;11.06;100.00;100084.13;4989330;28;20093;-78
2021/12/12 05:32:29;;;;;;;164.45;153.45;;;;;;;10.82;100.00;100090.34;4984401;28;20050;-78
2021/12/12 05:35:00;;;;;;;161.07;149.93;;;;;;;10.72;100.00;100097.00;4983581;28;20056;-79
2021/12/12 05:37:27;;;;;;;163.82;152.38;;;;;;;10.72;100.00;100099.66;4984750;28;20058;-78
2021/12/12 05:39:55;;;;;;;164.57;152.57;;;;;;;10.48;100.00;100108.50;4985045;28;20050;-78
2021/12/12 05:42:22;;;;;;;188.77;175.73;;;;;;;10.55;100.00;100125.97;4985316;28;20113;-78
2021/12/12 05:44:49;;;;;;;198.90;186.18;;;;;;;10.09;100.00;100134.34;4988386;28;20140;-79
2021/12/12 05:47:18;;;;;;;178.90;166.75;;;;;;;9.62;100.00;100142.63;4980805;28;20130;-79
2021/12/12 05:49:45;;;;;;;152.73;142.23;;;;;;;9.50;100.00;100147.00;4983668;28;20131;-79
2021/12/12 05:52:18;;;;;;;150.00;139.82;;;;;;;9.35;100.00;100155.22;4993400;28;20050;-79
2021/12/12 05:54:47;;;;;;;167.77;155.85;;;;;;;9.51;100.00;100169.81;4985321;28;20050;-79
2021/12/12 05:57:16;;;;;;;215.70;201.65;;;;;;;9.38;100.00;100173.34;4979738;28;20467;-79
2021/12/12 05:59:44;;;;;;;192.13;179.30;;;;;;;9.03;100.00;100185.31;4988651;28;20073;-79
2021/12/12 06:02:11;;;;;;;190.73;178.13;;;;;;;8.97;100.00;100209.97;4986014;28;20100;-80
2021/12/12 06:04:38;;;;;;;204.23;190.93;;;;;;;8.89;100.00;100209.16;4987936;28;20108;-78
2021/12/12 06:07:08;;;;;;;167.43;155.43;;;;;;;9.05;100.00;100220.34;4976696;28;20051;-78
2021/12/12 06:09:38;;;;;;;166.82;154.80;;;;;;;8.96;100.00;100225.06;4988110;28;20132;-78
2021/12/12 06:12:07;;;;;;;181.57;168.52;;;;;;;8.75;100.00;100226.13;4981592;28;20054;-78
2021/12/12 06:14:34;;;;;;;198.38;184.15;;;;;;;8.45;100.00;100231.81;4988795;28;20054;-78
2021/12/12 06:17:04;;;;;;;200.20;185.65;;;;;;;8.26;100.00;100253.78;4985713;28;20046;-79
2021/12/12 06:19:33;;;;;;;227.90;210.80;;;;;;;8.17;100.00;100255.78;4980806;28;20088;-78
2021/12/12 06:22:01;;;;;;;221.20;204.98;;;;;;;8.14;100.00;100258.00;4991889;28;20557;-78
2021/12/12 06:24:31;;;;;;;239.50;222.43;;;;;;;8.29;100.00;100245.44;4982611;28;20059;-79
2021/12/12 06:27:05;;;;;;;229.32;212.30;;;;;;;8.12;100.00;100247.63;4981919;28;20113;-78
2021/12/12 06:29:32;;;;;;;230.60;214.10;;;;;;;8.11;100.00;100261.88;4990784;28;20129;-78
2021/12/12 06:32:01;;;;;;;237.50;220.13;;;;;;;7.98;100.00;100273.22;4984548;28;20054;-78
2021/12/12 06:34:28;;;;;;;203.85;186.93;;;;;;;8.09;100.00;100281.63;4984350;28;20055;-79
2021/12/12 06:36:55;;;;;;;222.68;205.48;;;;;;;8.00;100.00;100284.44;4980966;28;20446;-78
2021/12/12 06:39:24;;;;;;;226.07;208.50;;;;;;;7.83;100.00;100287.63;4987553;28;20046;-77
2021/12/12 06:41:52;;;;;;;230.82;213.05;;;;;;;7.93;100.00;100288.09;4985741;28;20054;-79
2021/12/12 06:44:21;;;;;;;223.32;206.18;;;;;;;7.93;100.00;100294.19;4984056;28;20058;-77
2021/12/12 06:46:48;;;;;;;216.45;200.45;;;;;;;7.74;100.00;100301.00;4982617;28;20114;-78
2021/12/12 06:49:18;;;;;;;216.90;200.75;;;;;;;7.88;100.00;100290.50;4984391;28;20445;-79
2021/12/12 06:51:48;;;;;;;200.32;184.32;;;;;;;7.89;100.00;100302.69;4978914;28;20106;-79
2021/12/12 06:54:16;;;;;;;204.13;187.90;;;;;;;7.96;100.00;100308.84;4985273;28;20062;-79
2021/12/12 06:56:43;;;;;;;201.05;185.13;;;;;;;7.82;100.00;100323.84;4977375;28;20106;-78
2021/12/12 06:59:10;;;;;;;217.75;201.63;;;;;;;7.72;100.00;100341.91;4985888;28;20116;-79
2021/12/12 07:01:39;;;;;;;215.88;199.65;;;;;;;7.69;100.00;100356.31;4987966;28;20055;-79
2021/12/12 07:04:10;;;;;;;212.35;195.77;;;;;;;7.71;100.00;100356.09;4954202;28;20396;-78
2021/12/12 07:06:38;;;;;;;222.50;205.98;;;;;;;7.78;100.00;100354.34;4923815;28;20051;-80
2021/12/12 07:09:09;;;;;;;223.48;206.60;;;;;;;7.69;100.00;100366.09;4988225;28;20046;-80
2021/12/12 07:11:38;;;;;;;220.98;203.80;;;;;;;7.76;100.00;100374.84;4987742;28;20046;-78
2021/12/12 07:14:06;;;;;;;207.73;191.85;;;;;;;7.70;100.00;100386.22;4982945;28;20043;-77
2021/12/12 07:16:33;;;;;;;219.07;203.00;;;;;;;7.75;100.00;100389.91;4986221;28;20042;-79
2021/12/12 07:19:02;;;;;;;204.07;188.52;;;;;;;7.69;100.00;100395.97;4981897;28;20468;-80
2021/12/12 07:21:30;;;;;;;201.05;186.10;;;;;;;7.63;100.00;100403.88;4983712;28;20046;-79
2021/12/12 07:23:59;;;;;;;197.98;183.23;;;;;;;7.51;100.00;100403.59;4987917;28;20069;-77
2021/12/12 07:26:27;;;;;;;191.48;176.85;;;;;;;7.52;100.00;100416.59;4981673;28;20459;-79
2021/12/12 07:28:57;;;;;;;200.30;185.40;;;;;;;7.46;100.00;100414.72;4992102;28;20062;-78
2021/12/12 07:31:26;;;;;;;184.95;170.45;;;;;;;7.39;100.00;100420.97;4986670;28;20125;-78
2021/12/12 07:33:55;;;;;;;206.00;190.77;;;;;;;7.44;100.00;100423.84;4984355;28;20054;-79
2021/12/12 07:36:25;;;;;;;208.65;192.95;;;;;;;7.56;100.00;100427.59;4989167;28;20054;-77
2021/12/12 07:38:56;;;;;;;208.48;193.02;;;;;;;7.58;100.00;100433.50;4986309;28;20046;-77
2021/12/12 07:41:26;;;;;;;218.48;202.57;;;;;;;7.58;100.00;100441.44;4986592;28;20454;-80
2021/12/12 07:43:53;;;;;;;205.90;190.30;;;;;;;7.62;100.00;100452.44;4987028;28;20050;-78
2021/12/12 07:46:21;;;;;;;225.48;209.32;;;;;;;8.16;100.00;100457.03;4986512;28;20055;-79
2021/12/12 07:48:54;;;;;;;196.13;181.52;;;;;;;7.82;100.00;100465.81;4987098;28;20050;-78
2021/12/12 07:51:23;;;;;;;;;;;;;;;7.67;100.00;100473.84;4994222;28;20124;-77
2021/12/12 07:53:55;;;;;;;179.98;166.38;;;;;;;7.75;100.00;100481.63;4992110;28;19930;-78
2021/12/12 07:56:23;;;;;;;192.55;177.65;;;;;;;7.54;100.00;100493.06;4996797;28;20084;-78
2021/12/12 07:58:51;;;;;;;183.23;169.40;;;;;;;7.13;100.00;100496.34;4986848;28;20050;-79
2021/12/12 08:01:18;;;;;;;176.93;163.07;;;;;;;7.14;100.00;100502.44;4988806;28;20487;-77
2021/12/12 08:03:45;;;;;;;197.48;180.98;;;;;;;7.26;100.00;100501.78;4986276;28;20050;-78
2021/12/12 08:06:15;;;;;;;205.35;184.52;;;;;;;7.45;100.00;100510.88;4987367;28;20105;-78
2021/12/12 08:08:43;;;;;;;189.88;175.07;;;;;;;7.43;100.00;100509.44;4990277;28;20050;-77
2021/12/12 08:11:15;;;;;;;177.82;163.63;;;;;;;7.31;100.00;100511.75;4987008;28;20046;-79
2021/12/12 08:13:42;;;;;;;192.65;177.27;;;;;;;7.27;100.00;100508.69;4988337;28;20046;-78
2021/12/12 08:16:09;;;;;;;197.98;181.38;;;;;;;7.68;100.00;100501.91;4988660;28;20050;-78
2021/12/12 08:18:38;;;;;;;198.13;182.98;;;;;;;7.29;100.00;100511.13;4984978;28;20141;-79
2021/12/12 08:21:07;;;;;;;197.52;182.10;;;;;;;7.75;100.00;100519.47;4991877;28;20058;-78
2021/12/12 08:23:35;;;;;;;183.73;168.55;;;;;;;7.56;100.00;100528.88;4990140;28;20046;-78
2021/12/12 08:26:04;;;;;;;190.38;174.48;;;;;;;7.34;100.00;100549.19;4996759;28;20104;-78
2021/12/12 08:28:32;;;;;;;178.55;163.75;;;;;;;7.70;100.00;100539.53;4996242;28;20050;-78
2021/12/12 08:31:00;;;;;;;219.35;200.90;;;;;;;7.92;100.00;100541.13;4988115;28;20058;-78
2021/12/12 08:33:28;;;;;;;196.93;181.15;;;;;;;7.73;100.00;100560.31;4985980;28;20043;-77
2021/12/12 08:35:56;;;;;;;190.95;175.57;;;;;;;7.62;100.00;100560.81;4989842;28;20201;-79
2021/12/12 08:38:23;;;;;;;215.68;197.52;;;;;;;7.90;100.00;100537.88;4989313;28;20050;-78
2021/12/12 08:40:53;;;;;;;180.32;165.80;;;;;;;8.00;100.00;100533.06;4991099;28;20478;-78
2021/12/12 08:43:23;;;;;;;174.40;159.20;;;;;;;8.06;100.00;100544.69;4989656;28;20058;-80
2021/12/12 08:45:56;;;;;;;165.93;150.52;;;;;;;7.69;100.00;100559.88;4989043;28;20109;-80
2021/12/12 08:48:27;;;;;;;162.98;148.43;;;;;;;7.84;100.00;100564.25;4986244;28;20460;-79
2021/12/12 08:50:57;;;;;;;181.20;165.85;;;;;;;7.97;100.00;100569.66;4985946;28;20055;-78
2021/12/12 08:53:24;;;;;;;229.82;205.13;;;;;;;7.98;100.00;100580.03;4990282;28;20051;-78
2021/12/12 08:55:54;;;;;;;161.00;147.80;;;;;;;7.53;100.00;100587.41;4989741;28;20054;-77
2021/12/12 08:58:24;;;;;;;177.35;163.20;;;;;;;7.50;100.00;100598.34;4988805;28;20390;-78
2021/12/12 09:00:56;;;;;;;176.48;162.88;;;;;;;7.38;100.00;100589.25;4991759;28;20050;-77
2021/12/12 09:03:28;;;;;;;162.57;149.00;;;;;;;7.37;100.00;100587.63;4981980;28;20054;-79
2021/12/12 09:05:56;;;;;;;175.45;160.05;;;;;;;7.63;100.00;100591.53;4972365;28;20492;-79
2021/12/12 09:08:30;;;;;;;167.85;153.60;;;;;;;7.63;100.00;100587.06;4978176;28;20051;-78
2021/12/12 09:11:06;;;;;;;175.63;161.18;;;;;;;7.54;100.00;100604.88;4982286;28;20479;-78
2021/12/12 09:13:39;;;;;;;189.75;174.45;;;;;;;7.86;100.00;100591.31;4982699;28;20467;-80
2021/12/12 09:16:12;;;;;;;181.30;166.27;;;;;;;7.72;100.00;100598.34;4983665;28;20055;-80
2021/12/12 09:18:44;;;;;;;174.75;159.65;;;;;;;7.61;100.00;100615.50;4982065;28;20081;-78
2021/12/12 09:21:18;;;;;;;184.73;169.57;;;;;;;7.86;100.00;100615.13;4982999;28;20062;-78
2021/12/12 09:23:49;;;;;;;149.95;137.68;;;;;;;7.45;100.00;100606.00;4982234;28;20116;-79
2021/12/12 09:26:23;;;;;;;163.15;148.85;;;;;;;8.21;100.00;100600.16;4984043;28;20093;-79
2021/12/12 09:28:57;;;;;;;159.90;146.55;;;;;;;8.48;100.00;100591.38;4977909;28;20046;-79
2021/12/12 09:31:30;;;;;;;165.73;152.55;;;;;;;8.31;100.00;100592.66;4982508;28;20113;-79
2021/12/12 09:34:03;;;;;;;161.63;148.23;;;;;;;8.91;100.00;100596.47;4988337;28;20125;-78
2021/12/12 09:36:36;;;;;;;155.10;142.45;;;;;;;9.17;100.00;100595.78;4987717;28;20106;-78
2021/12/12 09:39:09;;;;;;;151.15;138.95;;;;;;;9.36;100.00;100590.72;4987482;28;20051;-78
2021/12/12 09:41:56;;;;;;;129.88;118.93;;;;;;;9.43;100.00;100583.59;4988792;28;20117;-79
2021/12/12 09:44:44;;;;;;;125.10;114.40;;;;;;;9.43;100.00;100583.59;4981564;28;20065;-79
2021/12/12 09:48:04;;;;;;;116.95;106.72;;;;;;;9.16;100.00;100585.34;4990259;28;20402;-79
2021/12/12 09:53:47;;;;;;;112.57;102.68;;;;;;;9.47;100.00;100576.03;4989434;28;20062;-78
2021/12/12 09:56:23;;;;;;;118.78;109.75;;;;;;;9.29;100.00;100573.97;4984542;28;20117;-79
2021/12/12 09:59:00;;;;;;;116.78;107.78;;;;;;;8.69;100.00;100581.72;4985622;28;20140;-79
2021/12/12 10:01:33;;;;;;;131.48;121.22;;;;;;;8.94;100.00;100593.44;4989555;28;20108;-79
2021/12/12 10:04:23;;;;;;;134.90;124.20;;;;;;;9.37;100.00;100606.41;4984015;28;20043;-78
2021/12/12 10:07:01;;;;;;;135.68;125.15;;;;;;;8.99;100.00;100610.59;4975750;28;20102;-79
2021/12/12 10:09:37;;;;;;;116.00;108.38;;;;;;;9.09;100.00;100611.03;4989595;28;20372;-79
2021/12/12 10:12:11;;;;;;;119.15;111.35;;;;;;;9.17;100.00;100603.72;4989042;28;20120;-80
2021/12/12 10:14:48;;;;;;;115.70;108.20;;;;;;;9.35;100.00;100605.00;4986455;28;20058;-77
2021/12/12 10:17:23;;;;;;;116.97;109.60;;;;;;;8.89;100.00;100602.97;4985744;28;20062;-79
2021/12/12 10:20:01;;;;;;;119.07;111.63;;;;;;;9.08;100.00;100601.44;4986121;28;20050;-77
2021/12/12 10:22:36;;;;;;;115.00;107.80;;;;;;;8.76;100.00;100605.59;4975281;28;20054;-76
2021/12/12 10:25:08;;;;;;;122.07;114.50;;;;;;;9.11;100.00;100623.06;4982956;28;20117;-78
2021/12/12 10:27:44;;;;;;;110.82;103.95;;;;;;;9.05;100.00;100626.50;4984845;28;20109;-78
2021/12/12 10:30:14;;;;;;;116.95;109.53;;;;;;;9.00;100.00;100638.69;4987540;28;20054;-77
2021/12/12 10:32:51;;;;;;;115.95;108.18;;;;;;;9.09;100.00;100651.56;4988164;28;20062;-77
2021/12/12 10:35:25;;;;;;;118.72;111.32;;;;;;;8.80;100.00;100665.88;4989892;28;20132;-79
2021/12/12 10:37:57;;;;;;;118.07;110.57;;;;;;;8.41;100.00;100669.94;4989928;28;20529;-78
2021/12/12 10:40:29;;;;;;;131.02;122.45;;;;;;;8.69;100.00;100667.28;4990284;28;20053;-76
2021/12/12 10:42:59;;;;;;;130.27;122.20;;;;;;;8.49;100.00;100674.25;4990496;28;20053;-78
2021/12/12 10:45:29;;;;;;;139.30;130.50;;;;;;;8.53;100.00;100691.38;4989426;28;20077;-78
2021/12/12 10:47:59;;;;;;;125.70;117.50;;;;;;;7.98;100.00;100693.75;4992293;28;20104;-79
2021/12/12 10:50:41;;;;;;;133.65;124.75;;;;;;;8.16;100.00;100690.66;4983306;28;20550;-77
2021/12/12 10:53:12;;;;;;;135.50;126.40;;;;;;;8.39;100.00;100694.97;4988554;28;20057;-76
2021/12/12 10:55:45;;;;;;;143.93;134.40;;;;;;;8.39;100.00;100702.91;4982092;28;20046;-77
2021/12/12 10:58:27;;;;;;;136.38;127.43;;;;;;;8.51;100.00;100697.91;4989941;28;20142;-78
2021/12/12 11:01:00;;;;;;;137.75;129.18;;;;;;;8.21;100.00;100700.69;4981453;28;20538;-77
2021/12/12 11:03:32;;;;;;;138.38;129.57;;;;;;;8.19;100.00;100692.94;4990047;28;20050;-78
2021/12/12 11:06:05;;;;;;;142.93;133.73;;;;;;;8.29;100.00;100686.50;4991897;28;20105;-76
2021/12/12 11:08:37;;;;;;;136.90;127.93;;;;;;;8.13;100.00;100687.59;4992403;28;20054;-77
2021/12/12 11:11:11;;;;;;;140.32;131.25;;;;;;;7.99;100.00;100678.72;4985925;28;20396;-76
2021/12/12 11:13:44;;;;;;;144.32;134.73;;;;;;;8.19;100.00;100678.88;4986857;28;20128;-76
2021/12/12 11:16:16;;;;;;;145.73;136.32;;;;;;;8.07;100.00;100677.75;4991948;28;20051;-78
2021/12/12 11:18:47;;;;;;;151.80;142.20;;;;;;;8.32;100.00;100678.16;4989356;28;20472;-78
2021/12/12 11:21:21;;;;;;;142.18;133.15;;;;;;;8.45;100.00;100678.31;4987184;28;20454;-78
2021/12/12 11:23:53;;;;;;;136.50;128.10;;;;;;;8.51;100.00;100684.66;4992895;28;20046;-78
2021/12/12 11:26:23;;;;;;;122.53;114.68;;;;;;;8.61;100.00;100683.31;4989982;28;20054;-76
2021/12/12 11:28:55;;;;;;;113.40;105.85;;;;;;;8.57;100.00;100689.19;4994890;28;20364;-77
2021/12/12 11:31:27;;;;;;;105.43;98.75;;;;;;;8.39;100.00;100687.84;4995839;28;20053;-76